Norbank — PGIS — position and weather

sailwx.info

Track history (hours):
 
Tides and Currents Weather Stations Pressure Air Temp Water Temp Dewpoint Dewpoint Depression Visibility Wind Speed Wind Dir Waves Ship Positions

Norbank

Operator: P & O Ferries

Last reported at 2016-May-02 10:33 UTC. Time now 2016-May-02 10:46 UTC.
Position N 53°23' W 003°00'.

Length 167 m; draft 4.7 m.

Type: Ship (hazmat cat A). MMSI: 246213000.

Date/timePositionNaut miles runAvg speedWind from/ knotsBaromVisibWave heightAir tempDewpointWater temp
2016-May-02 10:33N 53°23' W 003°00'0 0.0
2016-May-02 09:33N 53°23' W 003°00'0 0.0
2016-May-02 08:33N 53°23' W 003°00'0 0.2
2016-May-02 07:33N 53°23' W 003°01'0 0.0
2016-May-02 06:33N 53°23' W 003°01'0 0.0
2016-May-02 05:33N 53°23' W 003°01'0 0.0
2016-May-02 04:33N 53°23' W 003°01'0 0.0
2016-May-02 03:33N 53°23' W 003°01'0 0.0
2016-May-02 02:33N 53°23' W 003°01'0 0.0
2016-May-02 01:33N 53°23' W 003°01'0 0.0
2016-May-02 00:33N 53°23' W 003°01'0 0.0
2016-May-01 23:33N 53°23' W 003°01'0 0.0
2016-May-01 22:33N 53°23' W 003°01'0 0.0
2016-May-01 21:33N 53°23' W 003°01'0 0.0
2016-May-01 20:33N 53°23' W 003°01'0 0.0
2016-May-01 19:33N 53°23' W 003°01'0 0.0
2016-May-01 18:33N 53°23' W 003°01'0 0.0
2016-May-01 17:33N 53°23' W 003°01'0 0.0
2016-May-01 16:33N 53°23' W 003°01'0 0.0
2016-May-01 15:33N 53°23' W 003°01'0 0.0
2016-May-01 14:33N 53°23' W 003°01'0 0.0
2016-May-01 13:33N 53°23' W 003°01'0 0.0
2016-May-01 12:33N 53°23' W 003°01'0 0.0
2016-May-01 11:33N 53°23' W 003°01'0 0.0
2016-May-01 10:34N 53°23' W 003°01'0 0.0
2016-May-01 09:33N 53°23' W 003°01'0 0.0
2016-May-01 08:33N 53°23' W 003°01'0 0.0
2016-May-01 07:33N 53°23' W 003°01'0 0.0
2016-May-01 06:33N 53°23' W 003°01'0 0.0
2016-May-01 05:33N 53°23' W 003°01'0 0.2
2016-May-01 04:33N 53°23' W 003°00'1312.6
2016-May-01 03:33N 53°32' W 003°17'1414.1
2016-May-01 02:33N 53°31' W 003°41'1616.2
2016-May-01 01:33N 53°33' W 004°07'18 1.2
2016-Apr-30 10:33N 53°33' W 003°36'1616.3
2016-Apr-30 09:33N 53°32' W 003°09'7 6.6
2016-Apr-30 08:32N 53°27' W 003°01'0 0.5
2016-Apr-30 07:33N 53°27' W 003°01'0 0.0
2016-Apr-30 06:32N 53°27' W 003°01'0 0.0
2016-Apr-30 05:32N 53°27' W 003°01'0 0.1
2016-Apr-30 04:33N 53°27' W 003°01'6 6.5
2016-Apr-30 03:33N 53°32' W 003°09'1717.0
2016-Apr-30 02:33N 53°31' W 003°38'1616.0
2016-Apr-30 01:33N 53°33' W 004°05'5 0.4
2016-Apr-29 11:32N 53°33' W 003°56'1717.2
2016-Apr-29 10:33N 53°33' W 003°28'1515.4
2016-Apr-29 09:33N 53°28' W 003°04'2 1.6
2016-Apr-29 08:31N 53°27' W 003°01'0 0.2
2016-Apr-29 07:30N 53°27' W 003°01'0 0.0
2016-Apr-29 06:33N 53°27' W 003°01'0 0.0
2016-Apr-29 05:32N 53°27' W 003°01'0 0.1
2016-Apr-29 04:33N 53°27' W 003°01'6 6.3
2016-Apr-29 03:33N 53°32' W 003°09'1616.3
2016-Apr-29 02:34N 53°32' W 003°36'1515.5
2016-Apr-29 01:34N 53°33' W 004°02'3 0.2
2016-Apr-28 11:33N 53°34' W 003°56'1717.2
2016-Apr-28 10:33N 53°33' W 003°28'1515.3
2016-Apr-28 09:33N 53°28' W 003°03'1 1.5
2016-Apr-28 08:33N 53°27' W 003°01'0 0.0
2016-Apr-28 07:32N 53°27' W 003°01'0 0.0
2016-Apr-28 06:32N 53°27' W 003°01'0 0.0
2016-Apr-28 05:31N 53°27' W 003°01'0 0.0
2016-Apr-28 04:31N 53°27' W 003°01'1 1.3
2016-Apr-28 03:33N 53°28' W 003°03'1515.5
2016-Apr-28 02:34N 53°32' W 003°28'1717.3
2016-Apr-28 01:33N 53°32' W 003°57'15 1.0
2016-Apr-27 10:33N 53°33' W 003°32'1615.8
2016-Apr-27 09:33N 53°30' W 003°06'4 3.9
2016-Apr-27 08:33N 53°27' W 003°01'0 0.3
2016-Apr-27 07:30N 53°27' W 003°01'0 0.0
2016-Apr-27 06:33N 53°27' W 003°01'0 0.0
2016-Apr-27 05:32N 53°27' W 003°01'0 0.0
2016-Apr-27 04:32N 53°27' W 003°01'1 0.6
2016-Apr-27 03:33N 53°27' W 003°01'1514.6
2016-Apr-27 02:34N 53°31' W 003°25'1616.0
2016-Apr-27 01:33N 53°32' W 003°52'2 0.2
2016-Apr-26 11:32N 53°33' W 003°56'1716.9
2016-Apr-26 10:33N 53°33' W 003°28'1514.9
2016-Apr-26 09:33N 53°28' W 003°04'2 1.8
2016-Apr-26 08:33N 53°27' W 003°01'0 0.0
2016-Apr-26 07:31N 53°27' W 003°01'0 0.0
2016-Apr-26 06:30N 53°27' W 003°01'0 0.0
2016-Apr-26 05:33N 53°27' W 003°01'0 0.0
2016-Apr-26 04:29N 53°27' W 003°01'1 0.6
2016-Apr-26 03:33N 53°27' W 003°01'1212.3
2016-Apr-26 02:34N 53°31' W 003°20'1817.8
2016-Apr-26 01:33N 53°32' W 003°50'1 0.0
2016-Apr-24 23:13N 53°33' W 003°51'1117.1
2016-Apr-24 22:33N 53°33' W 003°32'1615.8
2016-Apr-24 21:33N 53°30' W 003°06'4 3.8
2016-Apr-24 20:33N 53°27' W 003°01'0 0.0
2016-Apr-24 19:30N 53°27' W 003°01'0 0.0
2016-Apr-24 18:30N 53°27' W 003°01'0 0.0
2016-Apr-24 17:32N 53°27' W 003°01'0 0.0
2016-Apr-24 16:29N 53°27' W 003°01'0 0.0
2016-Apr-24 15:29N 53°27' W 003°01'0 0.0
2016-Apr-24 14:31N 53°27' W 003°01'0 0.0
2016-Apr-24 13:31N 53°27' W 003°01'0 0.0
2016-Apr-24 12:30N 53°27' W 003°01'0 0.0
2016-Apr-24 11:33N 53°27' W 003°01'0 0.0
2016-Apr-24 10:33N 53°27' W 003°01'0 0.0
2016-Apr-24 09:29N 53°27' W 003°01'0 0.0
2016-Apr-24 08:32N 53°27' W 003°01'0 0.0
2016-Apr-24 07:31N 53°27' W 003°01'0 0.0
2016-Apr-24 06:31N 53°27' W 003°01'0 0.0
2016-Apr-24 05:33N 53°27' W 003°01'0 0.4
2016-Apr-24 04:30N 53°27' W 003°01'4 4.7
2016-Apr-24 03:33N 53°30' W 003°06'1414.0
2016-Apr-24 02:33N 53°31' W 003°30'1414.0
2016-Apr-24 01:33N 53°32' W 003°53'2 0.2
2016-Apr-23 12:18N 53°34' W 003°55'1418.6
2016-Apr-23 11:33N 53°33' W 003°32'1615.9
2016-Apr-23 10:33N 53°30' W 003°05'4 4.2
2016-Apr-23 09:33N 53°27' W 003°01'1 0.8
2016-Apr-23 08:31N 53°27' W 003°01'0 0.0
2016-Apr-23 07:31N 53°27' W 003°01'0 0.0
2016-Apr-23 06:34N 53°27' W 003°01'0 0.0
2016-Apr-23 05:33N 53°27' W 003°01'0 0.0
2016-Apr-23 04:33N 53°27' W 003°01'1 0.6
2016-Apr-23 03:33N 53°27' W 003°01'1211.9
2016-Apr-23 02:33N 53°32' W 003°19'1717.0
2016-Apr-23 01:33N 53°32' W 003°48'6 0.4
2016-Apr-22 10:33N 53°33' W 003°38'  
Track history (hours):
 
Tides and Currents Weather Stations Pressure Air Temp Water Temp Dewpoint Dewpoint Depression Visibility Wind Speed Wind Dir Waves Ship Positions

Norbank

Operator: P & O Ferries

Last reported at 2016-May-02 10:33 UTC. Time now 2016-May-02 10:46 UTC.
Position N 53°23' W 003°00'.

Length 167 m; draft 4.7 m.

Type: Ship (hazmat cat A). MMSI: 246213000.

Date/timePositionNaut miles runAvg speedWind from/ knotsBaromVisibWave heightAir tempDewpointWater temp
2016-May-02 10:33N 53°23' W 003°00'0 0.0
2016-May-02 09:33N 53°23' W 003°00'0 0.0
2016-May-02 08:33N 53°23' W 003°00'0 0.2
2016-May-02 07:33N 53°23' W 003°01'0 0.0
2016-May-02 06:33N 53°23' W 003°01'0 0.0
2016-May-02 05:33N 53°23' W 003°01'0 0.0
2016-May-02 04:33N 53°23' W 003°01'0 0.0
2016-May-02 03:33N 53°23' W 003°01'0 0.0
2016-May-02 02:33N 53°23' W 003°01'0 0.0
2016-May-02 01:33N 53°23' W 003°01'0 0.0
2016-May-02 00:33N 53°23' W 003°01'0 0.0
2016-May-01 23:33N 53°23' W 003°01'0 0.0
2016-May-01 22:33N 53°23' W 003°01'0 0.0
2016-May-01 21:33N 53°23' W 003°01'0 0.0
2016-May-01 20:33N 53°23' W 003°01'0 0.0
2016-May-01 19:33N 53°23' W 003°01'0 0.0
2016-May-01 18:33N 53°23' W 003°01'0 0.0
2016-May-01 17:33N 53°23' W 003°01'0 0.0
2016-May-01 16:33N 53°23' W 003°01'0 0.0
2016-May-01 15:33N 53°23' W 003°01'0 0.0
2016-May-01 14:33N 53°23' W 003°01'0 0.0
2016-May-01 13:33N 53°23' W 003°01'0 0.0
2016-May-01 12:33N 53°23' W 003°01'0 0.0
2016-May-01 11:33N 53°23' W 003°01'0 0.0
2016-May-01 10:34N 53°23' W 003°01'0 0.0
2016-May-01 09:33N 53°23' W 003°01'0 0.0
2016-May-01 08:33N 53°23' W 003°01'0 0.0
2016-May-01 07:33N 53°23' W 003°01'0 0.0
2016-May-01 06:33N 53°23' W 003°01'0 0.0
2016-May-01 05:33N 53°23' W 003°01'0 0.2
2016-May-01 04:33N 53°23' W 003°00'1312.6
2016-May-01 03:33N 53°32' W 003°17'1414.1
2016-May-01 02:33N 53°31' W 003°41'1616.2
2016-May-01 01:33N 53°33' W 004°07'18 1.2
2016-Apr-30 10:33N 53°33' W 003°36'1616.3
2016-Apr-30 09:33N 53°32' W 003°09'7 6.6
2016-Apr-30 08:32N 53°27' W 003°01'0 0.5
2016-Apr-30 07:33N 53°27' W 003°01'0 0.0
2016-Apr-30 06:32N 53°27' W 003°01'0 0.0
2016-Apr-30 05:32N 53°27' W 003°01'0 0.1
2016-Apr-30 04:33N 53°27' W 003°01'6 6.5
2016-Apr-30 03:33N 53°32' W 003°09'1717.0
2016-Apr-30 02:33N 53°31' W 003°38'1616.0
2016-Apr-30 01:33N 53°33' W 004°05'5 0.4
2016-Apr-29 11:32N 53°33' W 003°56'1717.2
2016-Apr-29 10:33N 53°33' W 003°28'1515.4
2016-Apr-29 09:33N 53°28' W 003°04'2 1.6
2016-Apr-29 08:31N 53°27' W 003°01'0 0.2
2016-Apr-29 07:30N 53°27' W 003°01'0 0.0
2016-Apr-29 06:33N 53°27' W 003°01'0 0.0
2016-Apr-29 05:32N 53°27' W 003°01'0 0.1
2016-Apr-29 04:33N 53°27' W 003°01'6 6.3
2016-Apr-29 03:33N 53°32' W 003°09'1616.3
2016-Apr-29 02:34N 53°32' W 003°36'1515.5
2016-Apr-29 01:34N 53°33' W 004°02'3 0.2
2016-Apr-28 11:33N 53°34' W 003°56'1717.2
2016-Apr-28 10:33N 53°33' W 003°28'1515.3
2016-Apr-28 09:33N 53°28' W 003°03'1 1.5
2016-Apr-28 08:33N 53°27' W 003°01'0 0.0
2016-Apr-28 07:32N 53°27' W 003°01'0 0.0
2016-Apr-28 06:32N 53°27' W 003°01'0 0.0
2016-Apr-28 05:31N 53°27' W 003°01'0 0.0
2016-Apr-28 04:31N 53°27' W 003°01'1 1.3
2016-Apr-28 03:33N 53°28' W 003°03'1515.5
2016-Apr-28 02:34N 53°32' W 003°28'1717.3
2016-Apr-28 01:33N 53°32' W 003°57'15 1.0
2016-Apr-27 10:33N 53°33' W 003°32'1615.8
2016-Apr-27 09:33N 53°30' W 003°06'4 3.9
2016-Apr-27 08:33N 53°27' W 003°01'0 0.3
2016-Apr-27 07:30N 53°27' W 003°01'0 0.0
2016-Apr-27 06:33N 53°27' W 003°01'0 0.0
2016-Apr-27 05:32N 53°27' W 003°01'0 0.0
2016-Apr-27 04:32N 53°27' W 003°01'1 0.6
2016-Apr-27 03:33N 53°27' W 003°01'1514.6
2016-Apr-27 02:34N 53°31' W 003°25'1616.0
2016-Apr-27 01:33N 53°32' W 003°52'2 0.2
2016-Apr-26 11:32N 53°33' W 003°56'1716.9
2016-Apr-26 10:33N 53°33' W 003°28'1514.9
2016-Apr-26 09:33N 53°28' W 003°04'2 1.8
2016-Apr-26 08:33N 53°27' W 003°01'0 0.0
2016-Apr-26 07:31N 53°27' W 003°01'0 0.0
2016-Apr-26 06:30N 53°27' W 003°01'0 0.0
2016-Apr-26 05:33N 53°27' W 003°01'0 0.0
2016-Apr-26 04:29N 53°27' W 003°01'1 0.6
2016-Apr-26 03:33N 53°27' W 003°01'1212.3
2016-Apr-26 02:34N 53°31' W 003°20'1817.8
2016-Apr-26 01:33N 53°32' W 003°50'1 0.0
2016-Apr-24 23:13N 53°33' W 003°51'1117.1
2016-Apr-24 22:33N 53°33' W 003°32'1615.8
2016-Apr-24 21:33N 53°30' W 003°06'4 3.8
2016-Apr-24 20:33N 53°27' W 003°01'0 0.0
2016-Apr-24 19:30N 53°27' W 003°01'0 0.0
2016-Apr-24 18:30N 53°27' W 003°01'0 0.0
2016-Apr-24 17:32N 53°27' W 003°01'0 0.0
2016-Apr-24 16:29N 53°27' W 003°01'0 0.0
2016-Apr-24 15:29N 53°27' W 003°01'0 0.0
2016-Apr-24 14:31N 53°27' W 003°01'0 0.0
2016-Apr-24 13:31N 53°27' W 003°01'0 0.0
2016-Apr-24 12:30N 53°27' W 003°01'0 0.0
2016-Apr-24 11:33N 53°27' W 003°01'0 0.0
2016-Apr-24 10:33N 53°27' W 003°01'0 0.0
2016-Apr-24 09:29N 53°27' W 003°01'0 0.0
2016-Apr-24 08:32N 53°27' W 003°01'0 0.0
2016-Apr-24 07:31N 53°27' W 003°01'0 0.0
2016-Apr-24 06:31N 53°27' W 003°01'0 0.0
2016-Apr-24 05:33N 53°27' W 003°01'0 0.4
2016-Apr-24 04:30N 53°27' W 003°01'4 4.7
2016-Apr-24 03:33N 53°30' W 003°06'1414.0
2016-Apr-24 02:33N 53°31' W 003°30'1414.0
2016-Apr-24 01:33N 53°32' W 003°53'2 0.2
2016-Apr-23 12:18N 53°34' W 003°55'1418.6
2016-Apr-23 11:33N 53°33' W 003°32'1615.9
2016-Apr-23 10:33N 53°30' W 003°05'4 4.2
2016-Apr-23 09:33N 53°27' W 003°01'1 0.8
2016-Apr-23 08:31N 53°27' W 003°01'0 0.0
2016-Apr-23 07:31N 53°27' W 003°01'0 0.0
2016-Apr-23 06:34N 53°27' W 003°01'0 0.0
2016-Apr-23 05:33N 53°27' W 003°01'0 0.0
2016-Apr-23 04:33N 53°27' W 003°01'1 0.6
2016-Apr-23 03:33N 53°27' W 003°01'1211.9
2016-Apr-23 02:33N 53°32' W 003°19'1717.0
2016-Apr-23 01:33N 53°32' W 003°48'6 0.4
2016-Apr-22 10:33N 53°33' W 003°38'  

Dump ship's entire track history